Time;durP1;ratioP1;P1;durP2;ratioP2;P2;SDS_P1;SDS_P2;PMS_P1;PMS_P2;Temp;Humidity;BMP_temperature;BMP_pressure;BME280_temperature;BME280_humidity;BME280_pressure;Samples;Min_cycle;Max_cycle;Signal;HPM_P1;HPM_P2
2022/06/30 00:00:43;;;;;;;7.55;6.75;;;30.10;57.20;;;;;;5083137;28;20106;-79
2022/06/30 00:03:09;;;;;;;7.32;6.43;;;30.30;57.00;;;;;;5088409;28;20462;-79
2022/06/30 00:05:35;;;;;;;8.38;7.10;;;30.40;56.70;;;;;;5089035;28;20454;-80
2022/06/30 00:08:01;;;;;;;8.13;6.65;;;30.50;56.70;;;;;;5078411;28;20119;-79
2022/06/30 00:10:27;;;;;;;9.02;7.15;;;30.60;56.70;;;;;;5078599;28;20024;-79
2022/06/30 00:12:53;;;;;;;13.10;6.70;;;30.50;56.60;;;;;;5074960;28;20031;-80
2022/06/30 00:15:20;;;;;;;8.75;6.95;;;30.60;56.50;;;;;;5066821;28;20020;-79
2022/06/30 00:17:46;;;;;;;8.63;6.60;;;30.60;57.10;;;;;;5074618;28;20036;-79
2022/06/30 00:20:11;;;;;;;10.20;7.28;;;30.50;56.80;;;;;;5056608;28;20386;-79
2022/06/30 00:22:37;;;;;;;7.00;6.30;;;30.60;56.70;;;;;;5079618;28;20024;-80
2022/06/30 00:25:03;;;;;;;10.05;7.00;;;30.60;56.60;;;;;;5077733;28;20033;-79
2022/06/30 00:27:29;;;;;;;8.32;6.93;;;30.40;57.50;;;;;;5048486;28;20039;-79
2022/06/30 00:29:54;;;;;;;8.90;6.78;;;30.30;57.10;;;;;;5075205;28;20021;-79
2022/06/30 00:32:20;;;;;;;8.85;7.28;;;30.20;57.00;;;;;;5074891;28;20056;-79
2022/06/30 00:34:46;;;;;;;8.25;7.32;;;30.30;57.10;;;;;;5075404;28;20052;-79
2022/06/30 00:37:12;;;;;;;9.73;7.05;;;30.30;57.20;;;;;;5077189;28;20027;-79
2022/06/30 00:39:37;;;;;;;8.68;7.40;;;30.30;57.10;;;;;;5094525;28;20135;-79
2022/06/30 00:42:07;;;;;;;8.93;7.30;;;30.40;57.40;;;;;;5072083;28;20040;-79
2022/06/30 00:44:33;;;;;;;11.45;7.15;;;30.30;57.20;;;;;;5074195;28;20044;-80
2022/06/30 00:46:59;;;;;;;8.95;7.30;;;30.20;57.40;;;;;;5080834;28;20037;-80
2022/06/30 00:49:24;;;;;;;10.02;7.22;;;30.20;57.50;;;;;;5082329;28;20020;-79
2022/06/30 00:51:50;;;;;;;8.68;7.15;;;30.30;57.60;;;;;;5084081;28;20024;-81
2022/06/30 00:54:17;;;;;;;8.23;6.90;;;30.40;57.50;;;;;;5085100;28;20032;-80
2022/06/30 00:56:45;;;;;;;9.40;7.30;;;30.30;57.60;;;;;;5092546;28;20047;-79
2022/06/30 00:59:14;;;;;;;7.30;6.60;;;30.40;57.50;;;;;;5086500;28;20098;-80
2022/06/30 01:01:42;;;;;;;10.02;7.40;;;30.40;57.50;;;;;;5075377;28;20031;-78
2022/06/30 01:04:09;;;;;;;8.50;7.60;;;30.40;57.80;;;;;;5055752;28;20119;-79
2022/06/30 01:06:36;;;;;;;8.13;7.10;;;30.40;57.70;;;;;;5084285;28;20098;-79
2022/06/30 01:09:03;;;;;;;8.57;7.20;;;30.20;57.70;;;;;;5066217;28;20471;-79
2022/06/30 01:14:15;;;;;;;8.95;6.60;;;30.10;58.40;;;;;;5087444;28;20031;-79
2022/06/30 01:16:41;;;;;;;8.80;6.70;;;30.10;58.30;;;;;;5048084;28;20025;-80
2022/06/30 01:19:07;;;;;;;10.82;6.82;;;30.10;58.20;;;;;;5060794;28;20119;-79
2022/06/30 01:21:34;;;;;;;8.52;6.72;;;29.80;58.70;;;;;;5062468;28;20078;-80
2022/06/30 01:23:59;;;;;;;8.32;7.40;;;30.00;58.40;;;;;;5064434;28;20024;-79
2022/06/30 01:26:28;;;;;;;9.45;7.00;;;30.10;58.20;;;;;;5087586;28;20039;-79
2022/06/30 01:28:55;;;;;;;10.30;7.57;;;30.20;57.70;;;;;;5082845;28;20036;-80
2022/06/30 01:31:22;;;;;;;7.75;6.85;;;30.30;57.70;;;;;;5058676;28;20025;-80
2022/06/30 01:33:48;;;;;;;8.75;6.53;;;30.40;57.60;;;;;;5065487;28;20427;-79
2022/06/30 01:36:14;;;;;;;9.43;6.60;;;30.30;57.50;;;;;;5077637;28;20036;-80
2022/06/30 01:38:40;;;;;;;10.10;7.60;;;30.20;58.00;;;;;;5042174;28;20037;-80
2022/06/30 01:41:06;;;;;;;10.88;7.32;;;30.10;57.70;;;;;;5088182;28;20046;-80
2022/06/30 01:43:32;;;;;;;10.43;6.35;;;30.20;57.60;;;;;;5093366;28;20032;-81
2022/06/30 01:45:57;;;;;;;7.88;7.03;;;30.10;57.70;;;;;;5070486;28;20024;-80
2022/06/30 01:48:23;;;;;;;8.00;6.97;;;30.00;57.60;;;;;;5069149;28;20025;-80
2022/06/30 01:50:49;;;;;;;9.25;6.90;;;30.10;57.40;;;;;;5065096;28;20103;-80
2022/06/30 01:53:14;;;;;;;8.43;7.05;;;30.30;57.20;;;;;;5089997;28;20425;-80
2022/06/30 01:55:40;;;;;;;7.75;6.90;;;30.30;57.40;;;;;;5089654;28;20059;-81
2022/06/30 01:58:06;;;;;;;8.40;6.88;;;30.40;57.00;;;;;;5081956;28;20079;-80
2022/06/30 02:00:32;;;;;;;9.00;6.90;;;30.20;56.90;;;;;;5059209;28;20490;-81
2022/06/30 02:02:58;;;;;;;9.27;7.05;;;30.20;56.90;;;;;;5068030;28;20028;-80
2022/06/30 02:05:25;;;;;;;7.88;6.25;;;30.30;56.80;;;;;;5056837;28;20423;-81
2022/06/30 02:07:52;;;;;;;8.30;6.43;;;30.10;56.70;;;;;;5093531;28;20024;-80
2022/06/30 02:10:21;;;;;;;9.65;6.35;;;30.00;56.40;;;;;;5073604;28;20119;-80
2022/06/30 02:12:47;;;;;;;9.15;7.00;;;30.00;56.70;;;;;;5035356;28;20021;-79
2022/06/30 02:15:33;;;;;;;9.27;6.93;;;29.90;56.60;;;;;;5042571;28;20024;-80
2022/06/30 02:18:01;;;;;;;7.80;6.78;;;29.80;57.00;;;;;;5054327;28;20043;-79
2022/06/30 02:20:27;;;;;;;9.95;6.70;;;29.60;57.00;;;;;;5034864;28;20029;-78
2022/06/30 02:22:55;;;;;;;10.43;6.53;;;29.40;57.30;;;;;;5054458;28;20039;-80
2022/06/30 02:25:22;;;;;;;8.57;6.20;;;29.30;57.10;;;;;;5081042;28;20031;-80
2022/06/30 02:27:48;;;;;;;7.30;6.53;;;29.00;57.80;;;;;;5083199;28;20428;-79
2022/06/30 02:30:14;;;;;;;8.90;6.35;;;29.10;57.90;;;;;;5072772;28;20471;-79
2022/06/30 02:32:40;;;;;;;12.90;11.07;;;29.30;58.00;;;;;;5034941;28;20076;-79
2022/06/30 02:35:07;;;;;;;9.00;6.47;;;29.50;57.10;;;;;;5070178;28;20034;-80
2022/06/30 02:37:32;;;;;;;7.95;6.50;;;29.50;57.20;;;;;;5090942;28;20034;-80
2022/06/30 02:39:58;;;;;;;10.82;6.40;;;29.60;57.00;;;;;;5040369;28;20037;-80
2022/06/30 02:42:24;;;;;;;7.75;6.60;;;29.50;57.30;;;;;;5053984;28;20028;-79
2022/06/30 02:44:49;;;;;;;10.15;6.85;;;29.50;57.00;;;;;;5086744;28;20110;-80
2022/06/30 02:47:15;;;;;;;8.93;6.28;;;29.50;57.00;;;;;;5075058;28;20115;-79
2022/06/30 02:49:41;;;;;;;11.02;6.70;;;29.50;56.90;;;;;;5077314;28;20032;-79
2022/06/30 02:52:07;;;;;;;7.97;6.50;;;29.40;57.50;;;;;;5059800;28;20039;-79
2022/06/30 02:54:33;;;;;;;8.65;6.95;;;29.30;57.20;;;;;;5067467;28;20020;-79
2022/06/30 02:56:59;;;;;;;10.02;7.10;;;29.20;57.40;;;;;;5079141;28;20029;-79
2022/06/30 02:59:25;;;;;;;8.13;6.78;;;29.10;57.60;;;;;;5082989;28;20138;-79
2022/06/30 03:01:51;;;;;;;9.90;7.50;;;28.90;57.80;;;;;;5076345;28;20112;-79
2022/06/30 03:04:16;;;;;;;8.80;6.75;;;28.90;57.90;;;;;;5072632;28;20039;-79
2022/06/30 03:06:42;;;;;;;7.95;6.72;;;28.80;58.30;;;;;;5072138;28;20497;-81
2022/06/30 03:09:08;;;;;;;7.80;6.60;;;28.80;58.20;;;;;;5044498;28;20124;-80
2022/06/30 03:11:33;;;;;;;11.95;7.00;;;28.80;58.30;;;;;;5079307;28;20021;-80
2022/06/30 03:13:59;;;;;;;8.40;6.53;;;28.90;58.20;;;;;;5064962;28;20025;-80
2022/06/30 03:16:25;;;;;;;8.13;7.28;;;28.90;57.90;;;;;;5054238;28;20024;-80
2022/06/30 03:18:52;;;;;;;9.10;7.22;;;28.90;57.90;;;;;;5071747;28;20090;-79
2022/06/30 03:21:20;;;;;;;8.88;6.88;;;28.80;57.70;;;;;;5083645;28;20028;-80
2022/06/30 03:23:46;;;;;;;9.00;6.55;;;28.80;58.00;;;;;;5063790;28;20107;-79
2022/06/30 03:26:13;;;;;;;8.38;7.25;;;28.70;58.40;;;;;;5060583;28;20024;-79
2022/06/30 03:28:38;;;;;;;8.55;6.53;;;28.70;58.20;;;;;;5076114;28;20028;-79
2022/06/30 03:31:04;;;;;;;9.10;7.13;;;28.60;58.40;;;;;;5074365;28;20028;-79
2022/06/30 03:33:30;;;;;;;8.27;6.95;;;28.70;58.50;;;;;;5056203;28;20028;-79
2022/06/30 03:35:57;;;;;;;6.80;6.10;;;28.90;58.40;;;;;;5087426;28;20391;-81
2022/06/30 03:38:23;;;;;;;7.78;6.65;;;29.00;58.30;;;;;;5091554;28;20032;-80
2022/06/30 03:40:48;;;;;;;9.57;6.80;;;29.10;57.90;;;;;;5072589;28;20028;-80
2022/06/30 03:43:16;;;;;;;8.13;7.03;;;29.10;57.90;;;;;;5078586;28;20025;-80
2022/06/30 03:45:42;;;;;;;9.65;7.05;;;29.10;58.30;;;;;;5072509;28;20136;-80
2022/06/30 03:48:07;;;;;;;9.32;6.95;;;29.20;58.00;;;;;;5092895;28;20485;-78
2022/06/30 03:50:34;;;;;;;7.88;6.90;;;29.20;57.90;;;;;;5053738;28;20024;-80
2022/06/30 03:53:00;;;;;;;8.30;7.22;;;29.10;58.00;;;;;;5072252;28;20077;-80
2022/06/30 03:55:26;;;;;;;7.30;6.45;;;29.10;58.20;;;;;;5087192;28;20028;-79
2022/06/30 03:57:52;;;;;;;8.00;6.95;;;29.20;58.30;;;;;;5078900;28;20082;-80
2022/06/30 04:00:18;;;;;;;10.00;6.97;;;29.20;58.40;;;;;;5072401;28;20130;-80
2022/06/30 04:02:44;;;;;;;10.63;6.95;;;29.30;58.40;;;;;;5082300;28;20031;-80
2022/06/30 04:05:10;;;;;;;8.88;6.97;;;29.40;58.20;;;;;;5064010;28;20025;-79
2022/06/30 04:07:43;;;;;;;8.50;6.50;;;29.60;57.90;;;;;;5079712;28;20032;-80
2022/06/30 04:10:10;;;;;;;8.75;6.60;;;29.80;57.70;;;;;;5076636;28;20131;-80
2022/06/30 04:12:37;;;;;;;8.20;7.32;;;29.80;57.50;;;;;;5062636;28;20040;-81
2022/06/30 04:15:04;;;;;;;9.77;6.55;;;29.80;58.20;;;;;;5092160;28;20454;-81
2022/06/30 04:17:33;;;;;;;12.93;6.72;;;29.80;58.60;;;;;;5095941;28;20027;-81
2022/06/30 04:20:03;;;;;;;11.55;7.40;;;29.90;58.30;;;;;;5091073;28;20024;-81
2022/06/30 04:22:28;;;;;;;9.70;7.03;;;30.10;58.00;;;;;;5067405;28;20028;-77
2022/06/30 04:24:54;;;;;;;8.77;7.03;;;30.30;57.80;;;;;;5039944;28;20033;-81
2022/06/30 04:27:21;;;;;;;10.65;7.60;;;30.30;57.90;;;;;;5056887;28;20025;-79
2022/06/30 04:29:46;;;;;;;8.20;7.40;;;30.30;57.90;;;;;;5075240;28;20070;-79
2022/06/30 04:34:56;;;;;;;9.38;7.72;;;30.50;57.70;;;;;;5089282;28;20081;-81
2022/06/30 04:37:22;;;;;;;9.18;7.95;;;30.70;57.80;;;;;;5083629;28;20035;-79
2022/06/30 04:39:48;;;;;;;12.23;7.75;;;30.80;57.90;;;;;;5069006;28;20035;-80
2022/06/30 04:42:13;;;;;;;10.23;7.25;;;30.90;57.70;;;;;;5057724;28;20467;-80
2022/06/30 04:44:39;;;;;;;10.23;7.30;;;31.10;57.40;;;;;;5071816;28;20035;-79
2022/06/30 04:47:05;;;;;;;10.10;7.57;;;31.30;57.20;;;;;;5059173;28;20432;-80
2022/06/30 04:49:31;;;;;;;12.23;6.82;;;31.30;57.30;;;;;;5065500;28;20081;-81
2022/06/30 04:51:56;;;;;;;8.93;7.07;;;31.40;56.70;;;;;;5086299;28;20406;-81
2022/06/30 04:54:22;;;;;;;9.15;6.97;;;31.50;56.40;;;;;;5092585;28;20032;-81
2022/06/30 04:56:48;;;;;;;10.90;6.63;;;31.60;56.50;;;;;;5061313;28;20139;-80
2022/06/30 04:59:13;;;;;;;11.05;6.38;;;31.70;56.60;;;;;;5073992;28;20079;-80
2022/06/30 05:01:39;;;;;;;8.88;5.70;;;31.80;56.20;;;;;;5075169;28;20024;-81
2022/06/30 05:04:05;;;;;;;9.30;5.47;;;31.60;55.00;;;;;;5054697;28;20404;-82
2022/06/30 05:06:30;;;;;;;9.45;5.60;;;30.90;55.00;;;;;;5053760;28;20525;-81
2022/06/30 05:08:56;;;;;;;10.00;6.07;;;30.40;56.10;;;;;;5077298;28;20028;-81
2022/06/30 05:11:22;;;;;;;8.85;5.72;;;30.70;57.60;;;;;;5074500;28;20107;-82
2022/06/30 05:13:47;;;;;;;7.10;5.43;;;31.00;56.80;;;;;;5074268;28;20028;-82
2022/06/30 05:16:13;;;;;;;9.52;5.93;;;31.30;56.70;;;;;;5073733;28;20032;-80
2022/06/30 05:18:39;;;;;;;8.35;6.00;;;31.60;56.20;;;;;;5082860;28;20035;-81
2022/06/30 05:21:04;;;;;;;8.80;5.50;;;32.00;55.60;;;;;;5076954;28;20433;-81
2022/06/30 05:23:30;;;;;;;6.75;5.95;;;32.00;53.30;;;;;;5084837;28;20094;-78
2022/06/30 05:28:40;;;;;;;6.97;5.63;;;32.30;53.60;;;;;;5074252;28;20537;-79
2022/06/30 05:31:06;;;;;;;8.13;5.65;;;32.50;53.60;;;;;;5073718;28;20052;-81
2022/06/30 05:33:32;;;;;;;7.28;5.82;;;32.60;54.10;;;;;;5056707;28;20107;-81
2022/06/30 05:35:58;;;;;;;10.75;5.97;;;32.70;54.50;;;;;;5055801;28;20483;-80
2022/06/30 05:38:24;;;;;;;7.50;5.20;;;32.70;54.30;;;;;;5074147;28;20111;-80
2022/06/30 05:40:50;;;;;;;9.88;5.45;;;32.70;54.70;;;;;;5055606;28;20117;-78
2022/06/30 05:43:16;;;;;;;9.45;5.57;;;32.80;54.20;;;;;;5073858;28;20024;-78
2022/06/30 05:45:44;;;;;;;8.65;5.80;;;33.10;53.60;;;;;;5074302;28;20020;-80
2022/06/30 05:48:10;;;;;;;8.13;4.95;;;33.20;54.00;;;;;;5056174;28;20024;-79
2022/06/30 05:50:35;;;;;;;10.95;5.35;;;33.30;54.70;;;;;;5055708;28;20242;-82
2022/06/30 05:53:01;;;;;;;7.13;4.90;;;33.20;53.90;;;;;;5073761;28;20024;-81
2022/06/30 05:55:27;;;;;;;13.27;5.60;;;32.90;55.90;;;;;;5055280;28;20024;-81
2022/06/30 05:57:57;;;;;;;9.15;5.82;;;32.70;56.40;;;;;;5056038;28;20040;-80
2022/06/30 06:00:28;;;;;;;7.90;4.90;;;32.80;55.90;;;;;;5056162;28;20071;-83
2022/06/30 06:02:55;;;;;;;8.85;5.32;;;32.50;55.90;;;;;;5073569;28;20025;-80
2022/06/30 06:05:22;;;;;;;6.15;5.00;;;32.60;56.00;;;;;;5055843;28;20116;-79
2022/06/30 06:07:48;;;;;;;7.82;5.55;;;32.70;55.30;;;;;;5073169;28;20033;-79
2022/06/30 06:10:14;;;;;;;6.75;4.55;;;33.10;56.00;;;;;;5055598;28;20025;-81
2022/06/30 06:12:43;;;;;;;6.78;4.90;;;33.30;55.70;;;;;;5055346;28;20024;-81
2022/06/30 06:15:10;;;;;;;10.48;4.55;;;33.80;55.50;;;;;;5054304;28;20021;-81
2022/06/30 06:17:44;;;;;;;6.80;4.55;;;34.10;53.10;;;;;;5071297;28;20035;-80
2022/06/30 06:20:12;;;;;;;7.32;4.90;;;34.20;51.80;;;;;;4732997;28;10000548;-80
2022/06/30 06:22:39;;;;;;;5.47;4.40;;;33.80;50.20;;;;;;5074070;28;20020;-82
2022/06/30 06:25:05;;;;;;;6.10;4.63;;;33.20;50.60;;;;;;5073637;28;20024;-81
2022/06/30 06:27:31;;;;;;;8.82;5.03;;;33.10;50.80;;;;;;5055462;28;20088;-81
2022/06/30 06:29:57;;;;;;;6.65;4.65;;;33.00;51.30;;;;;;5054505;28;20108;-82
2022/06/30 06:32:23;;;;;;;6.40;4.45;;;32.70;50.40;;;;;;5064125;28;20115;-81
2022/06/30 06:34:49;;;;;;;6.78;4.82;;;32.50;51.50;;;;;;5074592;28;20035;-82
2022/06/30 06:37:14;;;;;;;6.13;4.65;;;32.60;52.00;;;;;;5074463;28;20063;-84
2022/06/30 06:39:40;;;;;;;8.57;4.70;;;32.60;51.30;;;;;;5062362;28;20470;-79
2022/06/30 06:42:06;;;;;;;7.57;4.88;;;32.60;51.50;;;;;;5070868;28;20067;-81
2022/06/30 06:44:32;;;;;;;7.35;4.70;;;32.60;51.60;;;;;;5059871;28;20784;-79
2022/06/30 06:46:58;;;;;;;6.55;4.65;;;32.70;51.10;;;;;;5034324;28;20028;-81
2022/06/30 06:49:23;;;;;;;9.20;5.00;;;32.80;51.30;;;;;;5034490;28;20498;-84
2022/06/30 06:51:49;;;;;;;8.15;4.78;;;33.10;51.80;;;;;;5047176;28;20108;-79
2022/06/30 06:54:15;;;;;;;7.32;4.50;;;33.20;51.80;;;;;;5052543;28;20029;-85
2022/06/30 06:56:40;;;;;;;9.73;5.05;;;33.10;51.50;;;;;;5052720;28;20024;-78
2022/06/30 06:59:06;;;;;;;8.15;4.95;;;33.10;51.30;;;;;;5048821;28;20045;-80
2022/06/30 07:01:32;;;;;;;8.60;4.78;;;33.20;51.70;;;;;;5051610;28;20028;-84
2022/06/30 07:03:58;;;;;;;5.80;4.57;;;33.60;50.50;;;;;;5051110;28;20057;-82
2022/06/30 07:06:24;;;;;;;6.25;4.45;;;34.00;51.10;;;;;;5049279;28;20029;-79
2022/06/30 07:08:50;;;;;;;9.75;4.40;;;34.30;51.90;;;;;;5051158;28;20032;-81
2022/06/30 07:11:16;;;;;;;6.88;4.30;;;34.40;50.30;;;;;;5052450;28;20024;-81
2022/06/30 07:13:41;;;;;;;5.43;4.03;;;34.80;49.80;;;;;;5046060;28;20043;-78
2022/06/30 07:16:07;;;;;;;7.82;4.10;;;35.20;48.90;;;;;;5048757;28;20557;-80
2022/06/30 07:18:33;;;;;;;5.88;4.18;;;35.10;48.40;;;;;;5047638;28;20052;-79
2022/06/30 07:20:58;;;;;;;6.95;3.97;;;35.40;47.20;;;;;;5051977;28;20442;-76
2022/06/30 07:23:24;;;;;;;10.70;4.50;;;35.80;47.10;;;;;;5054161;28;20036;-80
2022/06/30 07:25:50;;;;;;;5.38;4.03;;;35.90;45.40;;;;;;5053037;28;20119;-77
2022/06/30 07:28:16;;;;;;;8.48;4.07;;;35.40;44.60;;;;;;5054595;28;20031;-81
2022/06/30 07:30:41;;;;;;;8.95;4.63;;;34.80;45.30;;;;;;5052443;28;20025;-81
2022/06/30 07:33:07;;;;;;;15.93;4.80;;;34.60;46.80;;;;;;5052489;28;20051;-79
2022/06/30 07:35:33;;;;;;;7.95;4.10;;;34.90;46.00;;;;;;5052009;28;20056;-77
2022/06/30 07:37:59;;;;;;;5.90;4.10;;;35.40;45.90;;;;;;5054039;28;20033;-80
2022/06/30 07:40:24;;;;;;;12.35;4.13;;;35.40;45.70;;;;;;5051624;28;20117;-80
2022/06/30 07:42:52;;;;;;;14.18;4.80;;;35.10;45.50;;;;;;5052346;28;20115;-80
2022/06/30 07:45:18;;;;;;;7.75;4.53;;;35.00;46.30;;;;;;5053595;28;20256;-82
2022/06/30 07:47:46;;;;;;;8.27;4.25;;;35.40;46.60;;;;;;5070549;28;20431;-83
2022/06/30 07:50:12;;;;;;;8.77;4.20;;;35.80;46.10;;;;;;5045286;28;20041;-83
2022/06/30 07:52:38;;;;;;;7.55;4.15;;;36.10;46.80;;;;;;5033917;28;20107;-82
2022/06/30 07:55:05;;;;;;;12.15;4.72;;;36.70;46.30;;;;;;5036280;28;20022;-78
2022/06/30 07:57:30;;;;;;;5.75;4.13;;;37.00;45.00;;;;;;5073440;28;20445;-80
2022/06/30 07:59:56;;;;;;;7.10;4.22;;;36.90;45.40;;;;;;5089958;28;20507;-80
2022/06/30 08:02:22;;;;;;;7.45;3.95;;;36.80;45.90;;;;;;5093757;28;20052;-81
2022/06/30 08:04:48;;;;;;;7.13;4.30;;;37.00;45.10;;;;;;5053685;28;20036;-80
2022/06/30 08:07:14;;;;;;;8.55;4.30;;;36.70;45.00;;;;;;5054799;28;20028;-78
2022/06/30 08:09:40;;;;;;;8.43;4.63;;;36.70;45.00;;;;;;5055088;28;20348;-77
2022/06/30 08:12:06;;;;;;;9.80;4.40;;;37.00;45.10;;;;;;5054512;28;20073;-76
2022/06/30 08:14:34;;;;;;;8.38;4.40;;;37.10;45.60;;;;;;5054987;28;20028;-79
2022/06/30 08:17:01;;;;;;;7.85;4.00;;;36.90;43.60;;;;;;5073576;28;20364;-82
2022/06/30 08:19:27;;;;;;;7.80;4.53;;;36.00;45.30;;;;;;5055766;28;20036;-76
2022/06/30 08:21:52;;;;;;;7.38;4.50;;;36.00;45.70;;;;;;5074176;28;20028;-79
2022/06/30 08:24:18;;;;;;;6.28;4.05;;;36.50;46.00;;;;;;5056017;28;20028;-77
2022/06/30 08:26:44;;;;;;;5.90;3.88;;;37.00;44.40;;;;;;5054740;28;20348;-80
2022/06/30 08:29:12;;;;;;;9.38;4.13;;;36.90;44.10;;;;;;5072463;28;20493;-77
2022/06/30 08:31:38;;;;;;;10.40;3.95;;;37.10;45.20;;;;;;5071481;28;20060;-78
2022/06/30 08:34:04;;;;;;;7.93;4.15;;;37.20;43.70;;;;;;5055216;28;20059;-80
2022/06/30 08:36:30;;;;;;;9.00;4.38;;;37.10;44.20;;;;;;5053858;28;20557;-82
2022/06/30 08:38:55;;;;;;;7.93;3.72;;;36.90;44.10;;;;;;5054538;28;20036;-84
2022/06/30 08:44:06;;;;;;;6.40;4.00;;;36.30;43.60;;;;;;5066284;28;20101;-81
2022/06/30 08:46:33;;;;;;;6.82;3.92;;;36.80;43.90;;;;;;5054633;28;20021;-80
2022/06/30 08:48:59;;;;;;;7.82;3.97;;;37.10;43.10;;;;;;5072172;28;20028;-77
2022/06/30 08:51:28;;;;;;;7.22;3.53;;;37.30;42.90;;;;;;5053993;28;20032;-83
2022/06/30 08:54:03;;;;;;;7.38;4.43;;;37.10;44.20;;;;;;5072655;28;20028;-83
2022/06/30 08:56:30;;;;;;;23.33;4.40;;;37.40;43.40;;;;;;5054469;28;20549;-77
2022/06/30 08:58:57;;;;;;;8.75;4.90;;;37.30;43.30;;;;;;5071620;28;20044;-80
2022/06/30 09:01:22;;;;;;;7.60;3.97;;;37.10;43.90;;;;;;5055028;28;20486;-85
2022/06/30 09:03:49;;;;;;;10.23;4.10;;;37.00;43.70;;;;;;5043088;28;20041;-77
2022/06/30 09:06:15;;;;;;;7.82;3.70;;;37.30;43.20;;;;;;5058797;28;20407;-83
2022/06/30 09:08:41;;;;;;;10.35;3.70;;;37.40;43.70;;;;;;5076854;28;20031;-86
2022/06/30 09:11:06;;;;;;;6.32;3.83;;;37.80;43.60;;;;;;5076453;28;20051;-78
2022/06/30 09:13:51;;;;;;;6.70;3.80;;;37.90;43.50;;;;;;5078300;28;20056;-85
2022/06/30 09:16:20;;;;;;;7.05;3.97;;;38.40;42.70;;;;;;5073001;28;20073;-82
2022/06/30 09:18:46;;;;;;;6.95;3.17;;;38.90;44.50;;;;;;5071070;28;20718;-77
2022/06/30 09:21:17;;;;;;;7.68;3.20;;;37.80;40.90;;;;;;5053725;28;20039;-84
2022/06/30 09:23:44;;;;;;;8.20;3.60;;;37.50;41.20;;;;;;5066188;28;20041;-86
2022/06/30 09:26:19;;;;;;;5.63;3.50;;;37.20;41.30;;;;;;5053050;28;20500;-83
2022/06/30 09:28:47;;;;;;;7.43;3.30;;;37.10;41.30;;;;;;5063707;28;20086;-81
2022/06/30 09:31:15;;;;;;;6.68;3.33;;;37.20;42.60;;;;;;5071983;28;20021;-82
2022/06/30 09:33:45;;;;;;;7.20;3.20;;;37.30;42.20;;;;;;5052455;28;20025;-79
2022/06/30 09:36:24;;;;;;;5.20;3.38;;;37.20;41.90;;;;;;5071923;28;20032;-75
2022/06/30 09:39:09;;;;;;;6.53;3.00;;;37.60;41.40;;;;;;5054133;28;20449;-84
2022/06/30 09:41:39;;;;;;;6.78;3.60;;;38.00;42.10;;;;;;5060713;28;20040;-85
2022/06/30 09:44:22;;;;;;;7.90;3.70;;;37.70;41.80;;;;;;5055527;28;20478;-80
2022/06/30 09:47:08;;;;;;;7.95;3.40;;;37.70;42.30;;;;;;5065730;28;20099;-76
2022/06/30 09:49:42;;;;;;;6.22;3.30;;;37.70;42.90;;;;;;5043433;28;20166;-76
2022/06/30 09:52:22;;;;;;;5.55;3.55;;;38.10;41.60;;;;;;5053209;28;20062;-78
2022/06/30 09:54:55;;;;;;;5.38;3.35;;;38.10;42.10;;;;;;5047932;28;20383;-79
2022/06/30 09:57:27;;;;;;;6.55;3.45;;;38.50;41.50;;;;;;5068262;28;20028;-86
2022/06/30 10:00:09;;;;;;;5.25;3.50;;;38.40;41.30;;;;;;5068917;28;20053;-76
2022/06/30 10:02:41;;;;;;;3.88;3.42;;;38.30;41.70;;;;;;5052119;28;20445;-78
2022/06/30 10:05:09;;;;;;;9.25;3.40;;;38.30;42.00;;;;;;5050230;28;20025;-76
2022/06/30 10:07:37;;;;;;;9.73;3.45;;;38.10;41.30;;;;;;5069230;28;20025;-80
2022/06/30 10:10:13;;;;;;;5.28;3.30;;;37.70;41.70;;;;;;5052449;28;20024;-82
2022/06/30 10:12:43;;;;;;;7.03;3.25;;;37.90;41.70;;;;;;5070744;28;20389;-81
2022/06/30 10:15:11;;;;;;;10.00;3.30;;;38.50;41.10;;;;;;5052505;28;20445;-81
2022/06/30 10:17:43;;;;;;;5.05;3.45;;;38.10;41.00;;;;;;5070491;28;20035;-80
2022/06/30 10:20:10;;;;;;;5.78;3.15;;;38.10;41.40;;;;;;5046021;28;20028;-82
2022/06/30 10:22:38;;;;;;;5.75;3.03;;;38.70;40.70;;;;;;5033187;28;20052;-79
2022/06/30 10:25:04;;;;;;;6.80;3.15;;;38.90;40.40;;;;;;5033170;28;20135;-83
2022/06/30 10:27:30;;;;;;;3.80;2.83;;;38.70;40.40;;;;;;5070594;28;20640;-82
2022/06/30 10:30:13;;;;;;;7.20;3.20;;;38.20;41.00;;;;;;5068436;28;20024;-79
2022/06/30 10:33:00;;;;;;;9.05;3.60;;;38.30;41.00;;;;;;5051487;28;20032;-84
2022/06/30 10:35:47;;;;;;;4.35;3.28;;;38.30;41.10;;;;;;5048549;28;20063;-85
2022/06/30 10:38:35;;;;;;;5.13;3.08;;;38.40;40.90;;;;;;5051278;28;20115;-81
2022/06/30 10:41:10;;;;;;;6.88;3.10;;;38.80;41.70;;;;;;5052189;28;20028;-80
2022/06/30 10:44:05;;;;;;;6.10;3.58;;;39.00;42.30;;;;;;5054293;28;20363;-79
2022/06/30 10:46:51;;;;;;;5.00;2.95;;;38.90;40.10;;;;;;5063056;28;20031;-82
2022/06/30 10:49:17;;;;;;;5.63;2.90;;;38.80;40.60;;;;;;5086371;28;20029;-79
2022/06/30 10:51:45;;;;;;;6.68;3.00;;;38.60;40.60;;;;;;5056594;28;20140;-78
2022/06/30 10:54:30;;;;;;;7.40;2.97;;;38.60;39.90;;;;;;5052260;28;20028;-92
2022/06/30 10:56:57;;;;;;;5.88;3.10;;;38.30;40.80;;;;;;5072255;28;20110;-87
2022/06/30 10:59:41;;;;;;;5.53;3.03;;;38.90;41.30;;;;;;5052777;28;20058;-89
2022/06/30 11:02:07;;;;;;;4.50;2.80;;;39.30;39.60;;;;;;5065698;28;20028;-81
2022/06/30 11:04:37;;;;;;;8.80;2.97;;;39.40;39.20;;;;;;5051538;28;20052;-80
2022/06/30 11:07:10;;;;;;;4.75;3.05;;;39.20;39.70;;;;;;5054123;28;20075;-81
2022/06/30 11:09:48;;;;;;;4.43;2.90;;;38.60;39.80;;;;;;5050355;28;20032;-85
2022/06/30 11:12:15;;;;;;;6.18;3.10;;;38.40;39.20;;;;;;5060581;28;20117;-84
2022/06/30 11:14:48;;;;;;;5.82;2.80;;;38.40;40.30;;;;;;5059966;28;20025;-89
2022/06/30 11:17:15;;;;;;;7.53;2.90;;;38.70;39.40;;;;;;5053062;28;20058;-80
2022/06/30 11:19:41;;;;;;;6.25;3.00;;;38.80;39.30;;;;;;5067541;28;20036;-78
2022/06/30 11:22:08;;;;;;;9.93;2.95;;;38.50;39.10;;;;;;5061983;28;20021;-79
2022/06/30 11:24:38;;;;;;;4.57;2.90;;;38.50;39.00;;;;;;5051950;28;20498;-78
2022/06/30 11:27:24;;;;;;;6.13;2.55;;;38.50;39.90;;;;;;5052601;28;20114;-87
2022/06/30 11:30:02;;;;;;;6.43;3.00;;;38.90;40.60;;;;;;5069522;28;20021;-77
2022/06/30 11:32:28;;;;;;;5.78;3.00;;;38.90;39.20;;;;;;5051324;28;20029;-78
2022/06/30 11:34:56;;;;;;;6.75;3.08;;;39.10;40.30;;;;;;5054977;28;20032;-77
2022/06/30 11:37:27;;;;;;;4.95;2.70;;;39.00;39.40;;;;;;5055091;28;20025;-76
2022/06/30 11:40:05;;;;;;;5.95;2.88;;;39.20;38.80;;;;;;5053607;28;20036;-85
2022/06/30 11:42:31;;;;;;;7.85;3.10;;;39.40;39.10;;;;;;5053482;28;20032;-78
2022/06/30 11:44:57;;;;;;;5.75;2.78;;;39.70;39.00;;;;;;5050084;28;20112;-87
2022/06/30 11:47:23;;;;;;;4.32;2.80;;;39.60;38.60;;;;;;5051281;28;20029;-79
2022/06/30 11:49:59;;;;;;;8.40;2.65;;;39.20;39.00;;;;;;5051838;28;20522;-80
2022/06/30 11:52:28;;;;;;;5.35;2.90;;;39.30;39.10;;;;;;5052088;28;20544;-78
2022/06/30 11:54:56;;;;;;;8.73;2.92;;;39.20;38.50;;;;;;5069382;28;20044;-83
2022/06/30 11:57:28;;;;;;;7.03;2.70;;;38.90;38.30;;;;;;5050874;28;20366;-77
2022/06/30 11:59:57;;;;;;;8.38;3.13;;;39.20;38.80;;;;;;5041176;28;20098;-80
2022/06/30 12:02:23;;;;;;;6.45;2.88;;;39.70;39.50;;;;;;5048008;28;20025;-84
2022/06/30 12:04:54;;;;;;;6.70;3.08;;;40.10;39.60;;;;;;5048653;28;20729;-79
2022/06/30 12:07:21;;;;;;;7.30;3.10;;;40.40;38.80;;;;;;5055179;28;20067;-87
2022/06/30 12:09:48;;;;;;;5.90;2.78;;;40.00;38.90;;;;;;5033065;28;20133;-84
2022/06/30 12:12:18;;;;;;;8.77;2.55;;;39.90;39.20;;;;;;5058964;28;20034;-78
2022/06/30 12:14:45;;;;;;;8.25;2.83;;;39.80;38.40;;;;;;5071440;28;20127;-85
2022/06/30 12:17:13;;;;;;;5.72;2.90;;;39.90;37.80;;;;;;5065152;28;20020;-77
2022/06/30 12:19:43;;;;;;;8.02;2.67;;;40.00;39.40;;;;;;5059559;28;20048;-83
2022/06/30 12:22:09;;;;;;;;;;;39.80;38.90;;;;;;5066422;28;20116;-79
2022/06/30 12:24:36;;;;;;;8.60;3.05;;;39.50;38.30;;;;;;5045925;28;20003;-78
2022/06/30 12:27:02;;;;;;;6.15;2.75;;;39.50;37.10;;;;;;5054251;28;20421;-82
2022/06/30 12:29:32;;;;;;;7.00;2.55;;;39.60;37.90;;;;;;5055856;28;20478;-85
2022/06/30 12:31:57;;;;;;;;;;;39.70;37.70;;;;;;5055018;28;20021;-81
2022/06/30 12:34:24;;;;;;;6.93;2.88;;;39.80;38.30;;;;;;5054044;28;19912;-75
2022/06/30 12:36:50;;;;;;;4.70;2.67;;;39.80;37.90;;;;;;5055427;28;20025;-85
2022/06/30 12:39:16;;;;;;;8.85;3.03;;;39.90;38.20;;;;;;5055678;28;20040;-81
2022/06/30 12:41:43;;;;;;;9.40;2.80;;;40.10;37.40;;;;;;5054118;28;20025;-84
2022/06/30 12:44:10;;;;;;;6.28;3.00;;;40.30;38.20;;;;;;5053898;28;20078;-87
2022/06/30 12:46:46;;;;;;;4.57;2.50;;;40.20;37.80;;;;;;5053464;28;20022;-83
2022/06/30 12:49:22;;;;;;;6.85;2.50;;;40.10;38.00;;;;;;5054036;28;20120;-88
2022/06/30 12:51:48;;;;;;;7.65;2.83;;;39.90;37.40;;;;;;5054519;28;20119;-86
2022/06/30 12:54:18;;;;;;;4.30;2.58;;;39.60;37.50;;;;;;5055635;28;20075;-84
2022/06/30 12:56:50;;;;;;;6.28;3.00;;;40.00;37.80;;;;;;5053502;28;20391;-79
2022/06/30 12:59:18;;;;;;;5.68;2.85;;;40.10;38.20;;;;;;5061841;28;20053;-85